Time;durP1;ratioP1;P1;durP2;ratioP2;P2;SDS_P1;SDS_P2;PMS_P1;PMS_P2;Temp;Humidity;BMP_temperature;BMP_pressure;BME280_temperature;BME280_humidity;BME280_pressure;Samples;Min_cycle;Max_cycle;Signal;HPM_P1;HPM_P2
2021/08/19 00:01:18;;;;;;;21.50;20.33;;;18.80;81.00;;;;;;5083219;28;20830;-72
2021/08/19 00:03:45;;;;;;;21.37;20.27;;;18.80;81.10;;;;;;5083030;28;20442;-72
2021/08/19 00:06:14;;;;;;;22.23;20.83;;;18.80;81.20;;;;;;5081456;28;20815;-72
2021/08/19 00:08:41;;;;;;;21.10;20.10;;;18.80;81.20;;;;;;5086829;28;20507;-72
2021/08/19 00:11:09;;;;;;;21.10;20.00;;;18.70;81.50;;;;;;5076974;28;20446;-72
2021/08/19 00:13:36;;;;;;;21.47;20.47;;;18.70;81.70;;;;;;5081641;28;20488;-72
2021/08/19 00:16:04;;;;;;;21.30;20.30;;;18.70;82.00;;;;;;5079456;28;21274;-72
2021/08/19 00:18:31;;;;;;;21.43;20.33;;;18.70;81.90;;;;;;5076226;28;20482;-72
2021/08/19 00:20:58;;;;;;;21.70;20.50;;;18.70;81.90;;;;;;5088319;28;20972;-71
2021/08/19 00:23:26;;;;;;;21.10;20.10;;;18.70;81.80;;;;;;5083091;28;20486;-72
2021/08/19 00:25:53;;;;;;;21.27;20.20;;;18.70;81.90;;;;;;5083927;28;20446;-72
2021/08/19 00:28:20;;;;;;;21.83;20.63;;;18.70;82.10;;;;;;5080100;28;20481;-72
2021/08/19 00:30:47;;;;;;;20.90;19.90;;;18.60;82.10;;;;;;5083717;28;20535;-72
2021/08/19 00:33:14;;;;;;;21.20;20.10;;;18.70;81.90;;;;;;5078856;28;20484;-72
2021/08/19 00:35:41;;;;;;;21.43;20.43;;;18.70;81.80;;;;;;5085384;28;20461;-72
2021/08/19 00:38:07;;;;;;;22.17;21.07;;;18.60;82.10;;;;;;5081511;28;20470;-72
2021/08/19 00:40:36;;;;;;;21.40;20.40;;;18.60;82.20;;;;;;5086252;28;20480;-72
2021/08/19 00:43:05;;;;;;;21.47;20.20;;;18.60;82.30;;;;;;5080561;28;20455;-72
2021/08/19 00:45:32;;;;;;;21.13;20.13;;;18.60;82.50;;;;;;5084738;28;20457;-72
2021/08/19 00:48:00;;;;;;;20.70;19.70;;;18.60;82.40;;;;;;5084167;28;20469;-71
2021/08/19 00:50:27;;;;;;;21.67;20.47;;;18.60;82.40;;;;;;5086887;28;20507;-71
2021/08/19 00:52:54;;;;;;;21.63;20.53;;;18.60;82.40;;;;;;5082921;28;20479;-72
2021/08/19 00:55:21;;;;;;;21.63;20.43;;;18.60;82.60;;;;;;5085216;28;20461;-72
2021/08/19 00:57:50;;;;;;;21.80;20.70;;;18.60;82.70;;;;;;5079567;28;21104;-71
2021/08/19 01:00:18;;;;;;;21.60;20.50;;;18.60;82.60;;;;;;5081801;28;21274;-71
2021/08/19 01:02:46;;;;;;;21.17;20.07;;;18.60;82.80;;;;;;5084963;28;20452;-72
2021/08/19 01:05:14;;;;;;;21.43;20.23;;;18.60;82.60;;;;;;5085173;28;20465;-72
2021/08/19 01:07:41;;;;;;;21.10;20.10;;;18.60;82.60;;;;;;5084730;28;20469;-72
2021/08/19 01:10:09;;;;;;;21.17;20.10;;;18.60;82.50;;;;;;5086569;28;20560;-72
2021/08/19 01:12:36;;;;;;;21.60;20.50;;;18.60;82.40;;;;;;5083325;28;20496;-72
2021/08/19 01:15:05;;;;;;;21.50;20.40;;;18.60;82.30;;;;;;5078703;28;20823;-72
2021/08/19 01:17:32;;;;;;;21.50;20.40;;;18.60;82.20;;;;;;5083093;28;20535;-72
2021/08/19 01:19:59;;;;;;;22.00;20.80;;;18.60;82.10;;;;;;5083086;28;20461;-72
2021/08/19 01:22:26;;;;;;;22.10;21.00;;;18.60;82.20;;;;;;5081944;28;20460;-72
2021/08/19 01:24:53;;;;;;;22.10;21.00;;;18.60;82.20;;;;;;5082173;28;20460;-72
2021/08/19 01:27:23;;;;;;;21.70;20.60;;;18.60;82.20;;;;;;5085885;28;20479;-72
2021/08/19 01:29:51;;;;;;;21.90;20.80;;;18.60;82.10;;;;;;5081380;28;20450;-72
2021/08/19 01:32:18;;;;;;;21.97;20.97;;;18.60;81.50;;;;;;5079237;28;20465;-71
2021/08/19 01:34:46;;;;;;;22.20;21.10;;;18.70;81.20;;;;;;5079807;28;20565;-71
2021/08/19 01:37:13;;;;;;;21.50;20.50;;;18.60;81.50;;;;;;5086454;28;20477;-72
2021/08/19 01:39:40;;;;;;;21.93;20.83;;;18.60;81.30;;;;;;5084063;28;21063;-72
2021/08/19 01:42:07;;;;;;;21.70;20.70;;;18.60;81.40;;;;;;5084057;28;20478;-72
2021/08/19 01:44:36;;;;;;;22.10;21.03;;;18.50;81.60;;;;;;5082573;28;20925;-72
2021/08/19 01:47:04;;;;;;;21.00;20.00;;;18.50;81.60;;;;;;5084400;28;20488;-72
2021/08/19 01:49:33;;;;;;;21.40;20.30;;;18.50;81.70;;;;;;5079066;28;20453;-72
2021/08/19 01:52:00;;;;;;;21.23;20.23;;;18.50;81.70;;;;;;5079376;28;20552;-71
2021/08/19 01:54:27;;;;;;;21.07;20.07;;;18.50;81.60;;;;;;5079018;28;20467;-72
2021/08/19 01:56:55;;;;;;;21.40;20.37;;;18.50;81.70;;;;;;5079632;28;20540;-72
2021/08/19 01:59:22;;;;;;;21.60;20.60;;;18.50;81.70;;;;;;5083337;28;20449;-71
2021/08/19 02:01:51;;;;;;;21.27;20.17;;;18.50;81.90;;;;;;5080465;28;20466;-71
2021/08/19 02:04:17;;;;;;;21.53;20.43;;;18.50;81.80;;;;;;5075989;28;20550;-71
2021/08/19 02:06:44;;;;;;;21.80;20.80;;;18.50;81.80;;;;;;5084460;28;21191;-71
2021/08/19 02:09:11;;;;;;;21.03;20.03;;;18.50;81.80;;;;;;5084417;28;20472;-71
2021/08/19 02:11:39;;;;;;;21.10;20.10;;;18.60;81.70;;;;;;5075866;28;20450;-71
2021/08/19 02:14:07;;;;;;;21.00;20.00;;;18.50;81.90;;;;;;5085188;28;20481;-71
2021/08/19 02:16:34;;;;;;;20.80;19.80;;;18.50;82.30;;;;;;5079900;28;20461;-71
2021/08/19 02:19:03;;;;;;;21.13;20.13;;;18.50;82.10;;;;;;5082233;28;20599;-72
2021/08/19 02:21:30;;;;;;;20.87;19.87;;;18.50;82.30;;;;;;5083978;28;20463;-71
2021/08/19 02:23:57;;;;;;;22.17;21.17;;;18.50;82.00;;;;;;5082670;28;20488;-72
2021/08/19 02:26:24;;;;;;;22.57;21.33;;;18.60;81.40;;;;;;5084875;28;20541;-72
2021/08/19 02:28:51;;;;;;;22.10;20.90;;;18.50;81.50;;;;;;5080895;28;20469;-72
2021/08/19 02:31:18;;;;;;;22.83;21.70;;;18.50;81.50;;;;;;5085208;28;20458;-72
2021/08/19 02:33:44;;;;;;;22.47;21.37;;;18.50;81.60;;;;;;5089635;28;20473;-72
2021/08/19 02:36:13;;;;;;;21.10;20.10;;;18.60;81.50;;;;;;5085902;28;20465;-71
2021/08/19 02:38:40;;;;;;;21.77;20.67;;;18.60;81.80;;;;;;5087030;28;20483;-72
2021/08/19 02:41:07;;;;;;;21.37;20.27;;;18.60;81.50;;;;;;5077269;28;20458;-72
2021/08/19 02:43:38;;;;;;;21.50;20.50;;;18.50;81.70;;;;;;5088118;28;20457;-72
2021/08/19 02:46:05;;;;;;;21.30;20.13;;;18.50;81.80;;;;;;5090166;28;20479;-72
2021/08/19 02:48:32;;;;;;;21.77;20.67;;;18.50;81.90;;;;;;5085102;28;20574;-71
2021/08/19 02:50:59;;;;;;;21.60;20.50;;;18.40;81.90;;;;;;5081519;28;20488;-72
2021/08/19 02:53:27;;;;;;;21.80;20.70;;;18.40;81.90;;;;;;5088013;28;20472;-72
2021/08/19 02:55:54;;;;;;;23.20;22.00;;;18.40;82.10;;;;;;5085525;28;20465;-72
2021/08/19 02:58:21;;;;;;;21.80;20.70;;;18.50;81.80;;;;;;5088563;28;20473;-72
2021/08/19 03:00:48;;;;;;;25.17;23.87;;;18.50;81.90;;;;;;5085129;28;20951;-72
2021/08/19 03:03:15;;;;;;;21.63;20.53;;;18.30;82.50;;;;;;5088420;28;20815;-72
2021/08/19 03:05:42;;;;;;;21.20;20.10;;;18.30;82.70;;;;;;5082854;28;20500;-72
2021/08/19 03:08:09;;;;;;;22.33;21.13;;;18.30;82.70;;;;;;5087207;28;20499;-71
2021/08/19 03:10:38;;;;;;;22.43;21.23;;;18.30;82.40;;;;;;5082783;28;20556;-71
2021/08/19 03:13:05;;;;;;;22.07;20.97;;;18.40;82.30;;;;;;5087929;28;20552;-71
2021/08/19 03:15:32;;;;;;;23.87;22.50;;;18.40;82.00;;;;;;5087718;28;21016;-71
2021/08/19 03:17:59;;;;;;;22.93;21.80;;;18.40;81.90;;;;;;5085679;28;20599;-72
2021/08/19 03:20:26;;;;;;;24.00;22.80;;;18.30;82.10;;;;;;5088389;28;21144;-72
2021/08/19 03:22:53;;;;;;;21.93;20.83;;;18.30;82.10;;;;;;5083455;28;20449;-71
2021/08/19 03:25:20;;;;;;;22.43;21.33;;;18.30;82.10;;;;;;5080527;28;20457;-71
2021/08/19 03:27:49;;;;;;;22.33;21.13;;;18.30;82.10;;;;;;5084517;28;20568;-71
2021/08/19 03:30:16;;;;;;;22.33;21.13;;;18.30;82.20;;;;;;5082581;28;21157;-71
2021/08/19 03:32:43;;;;;;;21.80;20.67;;;18.30;82.10;;;;;;5087444;28;20535;-71
2021/08/19 03:35:11;;;;;;;22.50;21.30;;;18.30;82.10;;;;;;5079884;28;20570;-71
2021/08/19 03:37:40;;;;;;;22.00;20.90;;;18.30;82.00;;;;;;5087215;28;20469;-71
2021/08/19 03:40:08;;;;;;;22.30;21.00;;;18.40;81.80;;;;;;5082179;28;20453;-71
2021/08/19 03:42:37;;;;;;;22.73;21.63;;;18.30;81.80;;;;;;5086949;28;20468;-71
2021/08/19 03:45:08;;;;;;;23.47;22.27;;;18.30;82.00;;;;;;5083588;28;20467;-71
2021/08/19 03:47:35;;;;;;;21.83;20.53;;;18.30;82.20;;;;;;5088127;28;20540;-71
2021/08/19 03:50:02;;;;;;;22.13;21.03;;;18.30;82.00;;;;;;5074991;28;20487;-71
2021/08/19 03:52:28;;;;;;;22.90;21.53;;;18.30;81.90;;;;;;5086644;28;20473;-71
2021/08/19 03:54:55;;;;;;;23.57;22.27;;;18.30;82.10;;;;;;5078494;28;20473;-71
2021/08/19 03:57:22;;;;;;;22.47;21.33;;;18.30;82.10;;;;;;5086045;28;20493;-71
2021/08/19 03:59:49;;;;;;;22.00;20.70;;;18.30;82.10;;;;;;5081110;28;21034;-71
2021/08/19 04:02:17;;;;;;;25.70;24.10;;;18.30;82.10;;;;;;5085760;28;20510;-71
2021/08/19 04:04:44;;;;;;;22.60;21.40;;;18.40;82.10;;;;;;5087173;28;20454;-71
2021/08/19 04:07:11;;;;;;;24.63;23.33;;;18.40;81.80;;;;;;5087688;28;20582;-71
2021/08/19 04:09:38;;;;;;;23.50;22.30;;;18.40;81.80;;;;;;5087134;28;20751;-71
2021/08/19 04:12:05;;;;;;;23.43;22.23;;;18.50;81.70;;;;;;5081188;28;20485;-71
2021/08/19 04:14:32;;;;;;;24.80;23.50;;;18.40;81.70;;;;;;5084879;28;20587;-71
2021/08/19 04:16:59;;;;;;;24.70;23.20;;;18.50;81.70;;;;;;5084484;28;20464;-71
2021/08/19 04:19:27;;;;;;;22.60;21.50;;;18.40;81.70;;;;;;5081627;28;20541;-71
2021/08/19 04:21:54;;;;;;;24.20;22.90;;;18.50;81.70;;;;;;5083729;28;20886;-71
2021/08/19 04:24:21;;;;;;;24.43;23.20;;;18.40;81.90;;;;;;5083879;28;20859;-71
2021/08/19 04:26:48;;;;;;;24.77;23.37;;;18.50;81.80;;;;;;5083731;28;20453;-71
2021/08/19 04:29:15;;;;;;;24.00;22.70;;;18.50;81.70;;;;;;5083505;28;20576;-72
2021/08/19 04:31:42;;;;;;;24.30;22.80;;;18.50;81.60;;;;;;5084696;28;20459;-72
2021/08/19 04:34:08;;;;;;;23.87;22.57;;;18.50;81.60;;;;;;5086188;28;20475;-74
2021/08/19 04:36:37;;;;;;;24.37;23.07;;;18.40;81.60;;;;;;5086526;28;20589;-72
2021/08/19 04:39:04;;;;;;;24.43;23.23;;;18.40;81.60;;;;;;5084010;28;21218;-76
2021/08/19 04:41:31;;;;;;;23.67;22.47;;;18.40;81.50;;;;;;5084387;28;20540;-71
2021/08/19 04:43:58;;;;;;;28.30;26.70;;;18.40;81.50;;;;;;5081400;28;21012;-71
2021/08/19 04:46:25;;;;;;;25.20;23.90;;;18.40;81.50;;;;;;5085019;28;20460;-71
2021/08/19 04:48:51;;;;;;;23.90;22.70;;;18.40;81.40;;;;;;5086459;28;20469;-71
2021/08/19 04:51:19;;;;;;;24.50;23.20;;;18.50;81.40;;;;;;5079392;28;20467;-71
2021/08/19 04:53:47;;;;;;;24.27;23.07;;;18.40;81.60;;;;;;5082040;28;21008;-71
2021/08/19 04:56:14;;;;;;;25.10;23.80;;;18.40;81.60;;;;;;5081185;28;20982;-72
2021/08/19 04:58:40;;;;;;;23.77;22.40;;;18.40;82.00;;;;;;5077448;28;20484;-72
2021/08/19 05:01:07;;;;;;;26.80;24.97;;;18.50;82.00;;;;;;5086512;28;21005;-76
2021/08/19 05:03:34;;;;;;;24.90;23.63;;;18.50;81.50;;;;;;5085979;28;20487;-71
2021/08/19 05:06:01;;;;;;;27.63;26.20;;;18.50;81.20;;;;;;5082652;28;20459;-72
2021/08/19 05:08:28;;;;;;;23.60;22.40;;;18.40;81.20;;;;;;5084040;28;20485;-72
2021/08/19 05:10:57;;;;;;;26.53;25.13;;;18.40;81.10;;;;;;5081463;28;20457;-72
2021/08/19 05:13:23;;;;;;;23.77;22.57;;;18.40;81.20;;;;;;5083187;28;20987;-72
2021/08/19 05:15:50;;;;;;;25.13;23.93;;;18.40;81.10;;;;;;5077311;28;20545;-71
2021/08/19 05:18:17;;;;;;;23.27;21.87;;;18.50;81.00;;;;;;5081025;28;20489;-72
2021/08/19 05:20:44;;;;;;;26.47;25.17;;;18.50;81.10;;;;;;5084761;28;20449;-72
2021/08/19 05:23:11;;;;;;;25.10;23.83;;;18.50;81.00;;;;;;5079036;28;20453;-71
2021/08/19 05:25:38;;;;;;;23.90;22.57;;;18.50;81.00;;;;;;5086041;28;20475;-72
2021/08/19 05:28:06;;;;;;;24.25;23.05;;;18.50;82.50;;;;;;5081902;28;20514;-72
2021/08/19 05:30:33;;;;;;;25.00;23.80;;;18.60;82.10;;;;;;5084615;28;20453;-72
2021/08/19 05:33:00;;;;;;;27.03;25.63;;;18.60;81.40;;;;;;5085276;28;21094;-72
2021/08/19 05:35:27;;;;;;;27.13;25.73;;;18.60;81.00;;;;;;5087174;28;20510;-73
2021/08/19 05:37:54;;;;;;;24.53;23.30;;;18.50;80.80;;;;;;5080905;28;21018;-71
2021/08/19 05:40:21;;;;;;;23.13;22.00;;;18.40;80.90;;;;;;5084534;28;20456;-71
2021/08/19 05:42:48;;;;;;;25.83;24.33;;;18.30;80.80;;;;;;5080688;28;20484;-71
2021/08/19 05:45:16;;;;;;;24.87;23.57;;;18.30;80.80;;;;;;5081596;28;20454;-71
2021/08/19 05:47:43;;;;;;;25.37;24.17;;;18.30;80.60;;;;;;5078846;28;20484;-72
2021/08/19 05:50:11;;;;;;;25.10;23.90;;;18.40;80.50;;;;;;5076699;28;20467;-71
2021/08/19 05:52:39;;;;;;;25.33;24.13;;;18.40;80.50;;;;;;5079188;28;20470;-72
2021/08/19 05:55:07;;;;;;;25.70;24.40;;;18.30;80.50;;;;;;5082386;28;20573;-73
2021/08/19 05:57:34;;;;;;;26.03;24.43;;;18.50;80.00;;;;;;5083454;28;20703;-72
2021/08/19 06:00:01;;;;;;;24.83;23.47;;;18.50;79.90;;;;;;5078119;28;20457;-72
2021/08/19 06:02:29;;;;;;;26.60;25.00;;;18.50;80.20;;;;;;5080137;28;20464;-73
2021/08/19 06:04:56;;;;;;;25.90;24.60;;;18.60;79.90;;;;;;5077589;28;20463;-73
2021/08/19 06:07:23;;;;;;;28.30;27.00;;;18.60;79.80;;;;;;5084853;28;20595;-72
2021/08/19 06:09:50;;;;;;;26.10;24.70;;;18.70;79.40;;;;;;5084321;28;20458;-72
2021/08/19 06:12:17;;;;;;;25.60;24.40;;;18.80;78.80;;;;;;5087328;28;20615;-71
2021/08/19 06:14:44;;;;;;;25.17;23.97;;;18.80;79.00;;;;;;5085238;28;20552;-71
2021/08/19 06:17:11;;;;;;;28.37;26.57;;;18.80;79.00;;;;;;5088393;28;20472;-72
2021/08/19 06:19:39;;;;;;;27.20;25.80;;;18.90;78.80;;;;;;5084500;28;20448;-71
2021/08/19 06:22:06;;;;;;;24.93;23.60;;;19.00;78.50;;;;;;5086579;28;20453;-71
2021/08/19 06:24:33;;;;;;;27.77;26.27;;;19.10;78.30;;;;;;5090350;28;20526;-72
2021/08/19 06:27:00;;;;;;;28.57;26.97;;;19.30;78.20;;;;;;5083589;28;20456;-72
2021/08/19 06:29:27;;;;;;;26.80;25.40;;;19.30;77.90;;;;;;5089733;28;21280;-72
2021/08/19 06:31:54;;;;;;;28.83;27.33;;;19.40;77.50;;;;;;5084011;28;20489;-72
2021/08/19 06:34:21;;;;;;;28.63;27.17;;;19.50;77.60;;;;;;5085947;28;20461;-72
2021/08/19 06:36:49;;;;;;;27.27;25.83;;;19.60;77.20;;;;;;5087144;28;20457;-72
2021/08/19 06:39:18;;;;;;;28.83;27.50;;;19.70;76.90;;;;;;5086958;28;20459;-73
2021/08/19 06:41:45;;;;;;;25.60;24.30;;;19.90;76.80;;;;;;5086286;28;20453;-72
2021/08/19 06:44:12;;;;;;;28.63;27.23;;;19.90;76.70;;;;;;5086091;28;20464;-72
2021/08/19 06:46:39;;;;;;;26.50;25.10;;;20.10;76.40;;;;;;5087399;28;20457;-72
2021/08/19 06:49:06;;;;;;;28.10;26.70;;;20.20;75.80;;;;;;5087844;28;20485;-72
2021/08/19 06:51:33;;;;;;;26.53;25.10;;;20.40;75.10;;;;;;5083508;28;20549;-71
2021/08/19 06:54:01;;;;;;;27.50;26.10;;;20.50;74.60;;;;;;5090051;28;20457;-72
2021/08/19 06:56:31;;;;;;;28.43;27.03;;;20.60;74.50;;;;;;5088132;28;20945;-72
2021/08/19 06:59:01;;;;;;;27.07;25.77;;;20.70;74.00;;;;;;5083889;28;20959;-73
2021/08/19 07:01:28;;;;;;;30.60;29.10;;;20.80;73.30;;;;;;5085975;28;20493;-73
2021/08/19 07:03:54;;;;;;;28.63;27.03;;;20.90;73.70;;;;;;5085776;28;20835;-73
2021/08/19 07:06:21;;;;;;;27.60;26.00;;;21.00;73.30;;;;;;5082913;28;20503;-73
2021/08/19 07:08:48;;;;;;;28.23;26.83;;;21.00;72.50;;;;;;5089566;28;20484;-72
2021/08/19 07:11:17;;;;;;;30.43;28.93;;;21.00;72.70;;;;;;5087263;28;20458;-72
2021/08/19 07:13:44;;;;;;;29.13;27.63;;;20.90;72.60;;;;;;5079121;28;20461;-72
2021/08/19 07:16:11;;;;;;;31.57;30.07;;;20.90;72.90;;;;;;5084830;28;20986;-72
2021/08/19 07:18:38;;;;;;;31.90;30.20;;;21.00;72.80;;;;;;5082859;28;20487;-71
2021/08/19 07:21:05;;;;;;;29.43;28.03;;;21.10;72.40;;;;;;5086635;28;20569;-72
2021/08/19 07:23:33;;;;;;;31.87;30.37;;;21.10;72.30;;;;;;5085600;28;20544;-72
2021/08/19 07:26:00;;;;;;;28.23;26.83;;;21.30;72.00;;;;;;5083679;28;20461;-71
2021/08/19 07:28:28;;;;;;;29.13;27.40;;;21.40;71.60;;;;;;5085239;28;20564;-72
2021/08/19 07:30:55;;;;;;;32.00;30.20;;;21.60;71.40;;;;;;5081607;28;20461;-71
2021/08/19 07:33:22;;;;;;;31.47;30.00;;;21.70;71.00;;;;;;5082506;28;20545;-71
2021/08/19 07:35:49;;;;;;;27.60;26.20;;;21.90;70.60;;;;;;5086160;28;20483;-72
2021/08/19 07:38:18;;;;;;;27.70;26.40;;;22.00;69.30;;;;;;5083532;28;20482;-72
2021/08/19 07:40:45;;;;;;;31.20;29.80;;;22.00;69.50;;;;;;5081857;28;20465;-73
2021/08/19 07:43:12;;;;;;;30.13;28.63;;;22.10;69.60;;;;;;5083013;28;20465;-72
2021/08/19 07:45:42;;;;;;;30.13;28.63;;;22.10;69.60;;;;;;5085582;28;20445;-72
2021/08/19 07:48:10;;;;;;;31.30;29.80;;;22.30;69.40;;;;;;5084231;28;20477;-71
2021/08/19 07:50:37;;;;;;;29.40;27.90;;;22.20;68.70;;;;;;5084143;28;20453;-71
2021/08/19 07:53:04;;;;;;;27.80;26.30;;;22.40;68.50;;;;;;5084761;28;20469;-72
2021/08/19 07:55:32;;;;;;;28.77;27.37;;;22.40;68.40;;;;;;5083883;28;20467;-72
2021/08/19 07:58:00;;;;;;;28.00;26.30;;;22.20;67.70;;;;;;5077751;28;21015;-72
2021/08/19 08:00:30;;;;;;;30.60;29.00;;;22.10;68.50;;;;;;5083887;28;20457;-72
2021/08/19 08:02:59;;;;;;;28.87;27.50;;;22.20;68.60;;;;;;5079218;28;20517;-72
2021/08/19 08:05:28;;;;;;;30.30;28.70;;;22.10;67.90;;;;;;5082519;28;20555;-71
2021/08/19 08:08:01;;;;;;;27.87;26.47;;;22.00;68.60;;;;;;5081184;28;20489;-72
2021/08/19 08:10:30;;;;;;;28.73;27.30;;;22.00;69.40;;;;;;5077496;28;21002;-72
2021/08/19 08:12:57;;;;;;;29.43;28.00;;;22.00;68.40;;;;;;5086896;28;20463;-72
2021/08/19 08:15:24;;;;;;;29.00;27.60;;;21.90;68.50;;;;;;5087007;28;20480;-72
2021/08/19 08:17:51;;;;;;;29.40;28.00;;;22.10;68.10;;;;;;5085427;28;20784;-72
2021/08/19 08:20:20;;;;;;;29.00;27.33;;;22.00;68.60;;;;;;5086201;28;20457;-71
2021/08/19 08:22:50;;;;;;;29.90;28.40;;;22.00;68.00;;;;;;5084931;28;20834;-71
2021/08/19 08:25:17;;;;;;;29.30;27.90;;;22.00;67.80;;;;;;5084562;28;20834;-71
2021/08/19 08:27:59;;;;;;;30.67;29.17;;;22.20;67.50;;;;;;5086714;28;21000;-71
2021/08/19 08:30:27;;;;;;;31.10;29.60;;;21.90;68.00;;;;;;5081994;28;20513;-71
2021/08/19 08:32:55;;;;;;;28.40;26.90;;;21.70;68.40;;;;;;5084722;28;20893;-72
2021/08/19 08:35:23;;;;;;;28.77;27.37;;;21.90;68.30;;;;;;5081086;28;20484;-72
2021/08/19 08:37:50;;;;;;;27.23;25.90;;;22.20;68.00;;;;;;5080926;28;20481;-72
2021/08/19 08:40:19;;;;;;;27.77;26.37;;;22.50;67.90;;;;;;5087770;28;20925;-72
2021/08/19 08:42:47;;;;;;;30.13;28.73;;;22.80;66.70;;;;;;5086778;28;20453;-72
2021/08/19 08:45:16;;;;;;;30.13;28.63;;;23.00;65.70;;;;;;5079599;28;20449;-72
2021/08/19 08:47:46;;;;;;;30.23;28.73;;;23.10;64.70;;;;;;5083304;28;20479;-72
2021/08/19 08:50:14;;;;;;;27.77;26.37;;;23.20;65.10;;;;;;5082690;28;20457;-72
2021/08/19 08:52:42;;;;;;;29.33;27.83;;;23.20;65.30;;;;;;5080681;28;20468;-72
2021/08/19 08:55:10;;;;;;;29.20;27.70;;;23.30;64.90;;;;;;5080595;28;20469;-72
2021/08/19 08:57:38;;;;;;;30.33;28.77;;;23.10;64.50;;;;;;5079931;28;20484;-72
2021/08/19 09:00:06;;;;;;;29.90;28.30;;;22.80;65.30;;;;;;5082539;28;20459;-72
2021/08/19 09:02:33;;;;;;;29.30;27.80;;;22.50;65.80;;;;;;5086383;28;20464;-72
2021/08/19 09:05:14;;;;;;;29.87;28.37;;;22.40;65.50;;;;;;5084789;28;20461;-71
2021/08/19 09:07:42;;;;;;;33.50;31.70;;;22.60;65.80;;;;;;5083844;28;20575;-71
2021/08/19 09:10:10;;;;;;;28.93;27.47;;;22.70;66.10;;;;;;5082514;28;20945;-72
2021/08/19 09:12:39;;;;;;;31.07;29.20;;;22.70;65.30;;;;;;5083676;28;20553;-72
2021/08/19 09:15:10;;;;;;;32.10;30.50;;;22.60;65.90;;;;;;5077077;28;20458;-72
2021/08/19 09:17:42;;;;;;;31.03;29.43;;;22.20;66.80;;;;;;5079610;28;20469;-71
2021/08/19 09:20:11;;;;;;;32.60;30.90;;;21.80;68.00;;;;;;5081746;28;20814;-72
2021/08/19 09:22:56;;;;;;;31.50;29.90;;;21.50;68.20;;;;;;5085275;28;20549;-71
2021/08/19 09:25:32;;;;;;;31.83;30.23;;;21.50;68.90;;;;;;5083247;28;20973;-72
2021/08/19 09:28:20;;;;;;;29.90;28.40;;;21.60;69.30;;;;;;5083208;28;20476;-72
2021/08/19 09:30:50;;;;;;;32.00;30.30;;;21.50;69.40;;;;;;5081125;28;20478;-72
2021/08/19 09:33:19;;;;;;;32.30;30.63;;;21.70;69.10;;;;;;5084023;28;20967;-72
2021/08/19 09:35:51;;;;;;;28.93;27.43;;;22.20;68.60;;;;;;5078450;28;20986;-72
2021/08/19 09:38:21;;;;;;;30.67;28.97;;;22.60;67.40;;;;;;5081476;28;20478;-72
2021/08/19 09:41:06;;;;;;;30.50;29.00;;;22.90;66.00;;;;;;5080712;28;20453;-71
2021/08/19 09:43:40;;;;;;;30.70;29.00;;;23.10;66.00;;;;;;5082530;28;20449;-72
2021/08/19 09:46:08;;;;;;;28.53;27.03;;;23.40;65.00;;;;;;5081552;28;21027;-72
2021/08/19 09:48:35;;;;;;;29.00;27.40;;;23.50;63.50;;;;;;5077709;28;20855;-72
2021/08/19 09:51:25;;;;;;;29.97;28.47;;;23.60;62.70;;;;;;5081168;28;20454;-72
2021/08/19 09:53:56;;;;;;;29.40;28.00;;;23.70;62.00;;;;;;5079589;28;20496;-72
2021/08/19 09:56:30;;;;;;;29.47;27.77;;;23.70;62.20;;;;;;5085409;28;20520;-72
2021/08/19 09:59:18;;;;;;;30.43;28.77;;;24.00;62.00;;;;;;5079105;28;20475;-72
2021/08/19 10:01:45;;;;;;;28.57;27.17;;;24.30;60.80;;;;;;5081144;28;20564;-73
2021/08/19 10:04:13;;;;;;;28.07;26.67;;;24.50;60.50;;;;;;5082270;28;20453;-73
2021/08/19 10:06:40;;;;;;;30.13;28.63;;;24.80;59.70;;;;;;5083159;28;20453;-72
2021/08/19 10:09:08;;;;;;;29.07;27.33;;;25.10;58.70;;;;;;5084520;28;20483;-72
2021/08/19 10:11:36;;;;;;;29.97;28.47;;;25.20;58.20;;;;;;5083799;28;20457;-72
2021/08/19 10:14:03;;;;;;;30.53;28.93;;;25.20;57.60;;;;;;5082459;28;20471;-72
2021/08/19 10:16:31;;;;;;;32.53;30.93;;;25.40;57.70;;;;;;5079844;28;20563;-72
2021/08/19 10:19:01;;;;;;;32.50;30.80;;;25.50;57.10;;;;;;5085424;28;20894;-72
2021/08/19 10:21:29;;;;;;;27.90;26.50;;;25.50;56.70;;;;;;5080852;28;20489;-72
2021/08/19 10:23:58;;;;;;;31.10;29.50;;;25.10;55.90;;;;;;5080299;28;20446;-72
2021/08/19 10:26:26;;;;;;;29.10;27.40;;;25.10;55.80;;;;;;5084347;28;20811;-72
2021/08/19 10:28:55;;;;;;;31.73;30.13;;;25.10;55.80;;;;;;5081832;28;20484;-72
2021/08/19 10:31:47;;;;;;;30.17;28.67;;;24.90;56.60;;;;;;5083256;28;20461;-73
2021/08/19 10:34:17;;;;;;;32.23;30.63;;;24.90;56.00;;;;;;5083075;28;20488;-72
2021/08/19 10:36:56;;;;;;;31.90;30.20;;;25.00;56.40;;;;;;5079962;28;20465;-73
2021/08/19 10:39:40;;;;;;;33.70;32.00;;;24.90;55.30;;;;;;5079069;28;20445;-73
2021/08/19 10:42:31;;;;;;;29.30;27.80;;;24.80;55.70;;;;;;5082121;28;20457;-73
2021/08/19 10:44:58;;;;;;;31.07;29.47;;;24.60;56.40;;;;;;5077325;28;20534;-73
2021/08/19 10:47:37;;;;;;;33.03;31.23;;;24.50;56.00;;;;;;5082799;28;20475;-73
2021/08/19 10:50:27;;;;;;;30.27;28.67;;;24.30;56.50;;;;;;5086197;28;21177;-73
2021/08/19 10:52:57;;;;;;;28.33;26.93;;;24.30;56.50;;;;;;5083748;28;20453;-77
2021/08/19 10:55:25;;;;;;;30.57;29.07;;;24.40;57.40;;;;;;5084958;28;20453;-74
2021/08/19 10:57:56;;;;;;;31.50;29.90;;;24.50;56.70;;;;;;5086129;28;20473;-75
2021/08/19 11:00:42;;;;;;;28.53;27.03;;;24.30;56.80;;;;;;5086827;28;20981;-72
2021/08/19 11:03:37;;;;;;;30.23;28.63;;;24.00;57.20;;;;;;5086597;28;20468;-73
2021/08/19 11:06:06;;;;;;;29.63;28.13;;;24.00;57.60;;;;;;5086561;28;20453;-75
2021/08/19 11:08:48;;;;;;;29.23;27.83;;;24.30;57.80;;;;;;5081740;28;20488;-75
2021/08/19 11:11:27;;;;;;;28.70;27.20;;;24.20;57.90;;;;;;5081970;28;20463;-77
2021/08/19 11:14:01;;;;;;;28.87;27.37;;;23.80;58.90;;;;;;5083221;28;20548;-73
2021/08/19 11:16:28;;;;;;;29.87;28.30;;;23.60;59.50;;;;;;5083938;28;20826;-73
2021/08/19 11:19:10;;;;;;;28.63;27.13;;;23.50;60.30;;;;;;5088165;28;20488;-73
2021/08/19 11:21:38;;;;;;;29.77;28.27;;;23.50;60.50;;;;;;5084620;28;20489;-73
2021/08/19 11:24:07;;;;;;;27.07;25.57;;;23.50;61.00;;;;;;5088195;28;20974;-73
2021/08/19 11:26:34;;;;;;;30.03;28.33;;;23.60;60.80;;;;;;5084861;28;20450;-73
2021/08/19 11:29:02;;;;;;;29.30;27.80;;;23.80;60.70;;;;;;5086634;28;20563;-73
2021/08/19 11:31:29;;;;;;;27.80;26.40;;;23.90;60.20;;;;;;5085839;28;20469;-73
2021/08/19 11:33:59;;;;;;;27.90;26.50;;;24.10;59.30;;;;;;5081454;28;20544;-73
2021/08/19 11:36:26;;;;;;;31.20;29.60;;;24.10;59.20;;;;;;5078498;28;20484;-73
2021/08/19 11:38:57;;;;;;;28.30;26.80;;;23.90;59.90;;;;;;5086880;28;20473;-73
2021/08/19 11:41:24;;;;;;;30.50;29.07;;;23.70;60.50;;;;;;5086360;28;20470;-73
2021/08/19 11:43:57;;;;;;;30.97;29.37;;;23.40;61.10;;;;;;5084809;28;20553;-73
2021/08/19 11:46:27;;;;;;;28.70;27.20;;;23.20;62.00;;;;;;5079532;28;20450;-73
2021/08/19 11:48:56;;;;;;;32.27;30.57;;;23.10;62.20;;;;;;5083539;28;20472;-73
2021/08/19 11:51:26;;;;;;;29.20;27.70;;;23.00;62.50;;;;;;5085929;28;20457;-73
2021/08/19 11:53:56;;;;;;;29.07;27.50;;;22.80;62.90;;;;;;5086778;28;20461;-73
2021/08/19 11:56:26;;;;;;;30.67;29.03;;;22.90;63.00;;;;;;5086384;28;20480;-73
2021/08/19 11:59:01;;;;;;;30.60;28.90;;;22.90;63.50;;;;;;5088264;28;20468;-73
2021/08/19 12:01:31;;;;;;;28.10;26.70;;;23.20;62.90;;;;;;5087743;28;20492;-73
2021/08/19 12:03:58;;;;;;;28.87;27.37;;;23.60;62.20;;;;;;5086870;28;20460;-73
2021/08/19 12:06:27;;;;;;;31.50;29.73;;;23.80;61.00;;;;;;5083758;28;21975;-73
2021/08/19 12:08:55;;;;;;;29.83;28.23;;;24.00;60.50;;;;;;5080490;28;20524;-73
2021/08/19 12:11:24;;;;;;;29.50;28.00;;;24.20;60.30;;;;;;5079573;28;20969;-73
2021/08/19 12:13:52;;;;;;;28.87;27.40;;;24.50;59.60;;;;;;5086623;28;20472;-73
2021/08/19 12:16:21;;;;;;;29.30;27.80;;;24.80;59.20;;;;;;5084314;28;20831;-72
2021/08/19 12:19:08;;;;;;;30.57;29.07;;;24.90;58.90;;;;;;5083430;28;20485;-72
2021/08/19 12:21:36;;;;;;;31.37;29.67;;;25.00;58.50;;;;;;5081923;28;20453;-72
2021/08/19 12:24:17;;;;;;;29.67;28.07;;;25.20;58.70;;;;;;5086311;28;20485;-73
2021/08/19 12:26:59;;;;;;;31.13;29.50;;;25.20;59.00;;;;;;5084572;28;20449;-72
2021/08/19 12:29:26;;;;;;;29.30;27.73;;;25.10;59.00;;;;;;5082704;28;20467;-76
2021/08/19 12:31:54;;;;;;;29.10;27.70;;;25.20;58.60;;;;;;5082160;28;20526;-72
2021/08/19 12:34:22;;;;;;;31.40;29.80;;;24.90;58.20;;;;;;5085185;28;20548;-72
2021/08/19 12:36:49;;;;;;;29.17;27.57;;;24.70;59.20;;;;;;5078920;28;20982;-73